AirNav   Pilot Hours Calculator
 
 899 users online  

37TX Yates Field Airport
San Saba, Texas, USA

GOING TO SAN SABA?


FAA INFORMATION EFFECTIVE 11 AUGUST 2022

Location

FAA Identifier: 37TX
Lat/Long: 31-19-17.5950N 098-51-56.1650W
31-19.293250N 098-51.936083W
31.3215542,-98.8656014
(estimated)
Elevation: 1418 ft. / 432 m (estimated)
Variation: 08E (1985)
From city: 10 miles NW of SAN SABA, TX
Time zone: UTC -5 (UTC -6 during Standard Time)
Zip code: 76877

Airport Operations

Airport use: Private use. Permission required prior to landing
Activation date: 11/1990
Control tower: no
ARTCC: HOUSTON CENTER
FSS: SAN ANGELO FLIGHT SERVICE STATION
Attendance: UNATNDD
Wind indicator: yes
Segmented circle: no

Airport Communications

WX AWOS-3P at 81R (9 nm SE): 120.525 (325-372-6027)

Nearby radio navigation aids

VOR radial/distance  VOR name  Freq  Var
LLOr345/31.8LLANO VORTAC108.2008E
BWDr164/34.6BROWNWOOD VOR/DME113.5508E
AGJr277/38.0GOOCH SPRINGS VORTAC112.5005E

Airport Services

Runway Information

Runway 4/22

Dimensions: 2200 x 100 ft. / 671 x 30 m
Surface: turf
Runway edge markings: 04/22 MARKED WITH PVC POSTS.
RUNWAY 4  RUNWAY 22
Latitude: 31-19.206333N31-19.380333N
Longitude: 098-52.121333W098-51.750500W
Elevation: 1391.0 ft.1418.0 ft.
Traffic pattern: leftleft
Runway heading: 053 magnetic, 061 true233 magnetic, 241 true

Airport Ownership and Management from official FAA records

Ownership: Privately-owned
Owner: H W YATES
PO BOX 1427
BAYTOWN, TX 77522
Phone 713-758-5221
Manager: H W YATES
PO BOX 1427
BAYTOWN, TX 77522
Phone 713-758-5221

Airport Operational Statistics

Aircraft based on the field: 1
Single engine airplanes: 1
    

Additional Remarks

WILDLIFE CROSSINGS ON RY.
FOR CD CTC HOUSTON ARTCC AT 281-230-5622.

Instrument Procedures

There are no published instrument procedures at 37TX.

Some nearby airports with instrument procedures:

KBBD - Curtis Field Airport (25 nm W)
KBWD - Brownwood Regional Airport (29 nm N)
KAQO - Llano Municipal Airport (34 nm S)
KLZZ - Lampasas Airport (37 nm E)
KMKN - Comanche County-City Airport (38 nm N)
 
Loc | Ops | Rwys | IFR | FBO | Links
Com | Nav | Svcs | Stats | Notes
Area around 37TX (Yates Field Airport)
 
Road maps at: MapQuest Bing Google
 
Aerial photo
No photo
 
Sectional chart

 
Airport distance calculator
Flying to Yates Field Airport? Find the distance to fly.

From to 37TX

Sunrise and sunset
Times for 11-Aug-2022
 Local
(UTC-5)
 Zulu
(UTC)
Morning civil twilight06:3411:34
Sunrise06:5911:59
Sunset20:2201:22
Evening civil twilight20:4801:48

Current date and time
Zulu (UTC)  12-Aug-2022 04:00:16
Local (UTC-5)  11-Aug-2022 23:00:16
 
METAR
KAQO 
34nm S 
120335Z AUTO 00000KT 10SM SCT095 BKN120 29/19 A3000 RMK AO2
KLZZ 
37nm E 
120335Z AUTO 08003KT 10SM CLR 31/15 RMK AO2 T03050152
KCOM 
42nm NW 
120335Z AUTO 07011KT 10SM CLR 30/11 A3006 RMK AO2 T03040107
KMNZ 
42nm NE 
120340Z AUTO 08007KT 10SM CLR 29/17 A3004 RMK AO2 T02940167
KBMQ 
48nm SE 
120353Z AUTO 19003KT 10SM SCT100 BKN120 30/19 A3003 RMK AO2 SLP149 T03000194
TAF
KBBD 
25nm W 
111720Z 1118/1218 03006KT P6SM VCTS BKN050CB FM120000 VRB03KT P6SM SCT100 AMD NOT SKED
NOTAMs
Click for the latest NOTAMs
NOTAMs are issued by the DoD/FAA and will open in a separate window not controlled by AirNav.

 

 
 

Would you like to see your business listed on this page?

 If your business provides an interesting product or service to pilots, flight crews, aircraft, or users of the Yates Field Airport, you should consider listing it here.  To start the listing process, click on the button below
 
Add a business
 

Other Pages about Yates Field Airport

Update a link
 
Copyright © AirNav, LLC. All rights reserved. Privacy Policy  Contact